Time;durP1;ratioP1;P1;durP2;ratioP2;P2;SDS_P1;SDS_P2;PMS_P1;PMS_P2;Temp;Humidity;BMP_temperature;BMP_pressure;BME280_temperature;BME280_humidity;BME280_pressure;Samples;Min_cycle;Max_cycle;Signal;HPM_P1;HPM_P2
2021/12/07 00:01:25;;;;;;;;;;;2.40;86.10;;;;;;5126559;27;19927;-83
2021/12/07 00:03:53;;;;;;;;;;;2.50;86.20;;;;;;5141400;27;19923;-83
2021/12/07 00:06:21;;;;;;;;;;;2.50;86.20;;;;;;5158568;27;20292;-84
2021/12/07 00:08:54;;;;;;;;;;;2.50;86.30;;;;;;5162337;27;19923;-82
2021/12/07 00:11:23;;;;;;;;;;;2.50;86.30;;;;;;5152503;27;19946;-84
2021/12/07 00:13:52;;;;;;;;;;;2.40;86.30;;;;;;5137356;27;19927;-83
2021/12/07 00:16:19;;;;;;;;;;;2.40;86.40;;;;;;5147597;27;20395;-83
2021/12/07 00:18:47;;;;;;;;;;;2.30;86.50;;;;;;5141452;27;20406;-84
2021/12/07 00:21:17;;;;;;;;;;;2.30;86.70;;;;;;5145588;27;20388;-83
2021/12/07 00:23:45;;;;;;;;;;;2.30;86.70;;;;;;5146254;27;19923;-83
2021/12/07 00:26:33;;;;;;;;;;;2.30;86.70;;;;;;5124839;27;19939;-82
2021/12/07 00:29:02;;;;;;;;;;;2.30;86.80;;;;;;5128183;27;19927;-82
2021/12/07 00:31:38;;;;;;;;;;;2.20;87.00;;;;;;5130475;27;19923;-83
2021/12/07 00:36:36;;;;;;;;;;;2.20;87.10;;;;;;5117794;27;20292;-83
2021/12/07 00:39:05;;;;;;;;;;;2.20;87.20;;;;;;5136966;27;19924;-83
2021/12/07 00:41:32;;;;;;;;;;;2.10;87.30;;;;;;5136471;27;19938;-83
2021/12/07 00:44:01;;;;;;;;;;;2.10;87.40;;;;;;5137626;27;19924;-83
2021/12/07 00:46:29;;;;;;;;;;;2.10;87.40;;;;;;5087780;27;20300;-82
2021/12/07 00:48:56;;;;;;;;;;;2.10;87.40;;;;;;5136654;27;19923;-83
2021/12/07 00:51:26;;;;;;;;;;;2.00;87.60;;;;;;5136108;27;19927;-82
2021/12/07 00:53:53;;;;;;;;;;;2.00;87.70;;;;;;5117038;27;19923;-83
2021/12/07 00:56:21;;;;;;;;;;;2.00;88.00;;;;;;5100137;27;19923;-82
2021/12/07 00:58:51;;;;;;;;;;;2.00;88.00;;;;;;5100331;27;19924;-82
2021/12/07 01:01:19;;;;;;;;;;;2.00;88.10;;;;;;5122825;27;19930;-82
2021/12/07 01:03:47;;;;;;;;;;;1.80;88.10;;;;;;5151868;27;19923;-83
2021/12/07 01:25:09;;;;;;;;;;;0.90;89.30;;;;;;5156472;27;19923;-83
2021/12/07 01:27:36;;;;;;;;;;;0.80;89.60;;;;;;5137917;27;19924;-84
2021/12/07 01:32:49;;;;;;;;;;;0.60;89.90;;;;;;5132818;27;19931;-84
2021/12/07 02:01:44;;;;;;;;;;;-0.10;90.90;;;;;;5116664;27;19924;-83
2021/12/07 02:04:13;;;;;;;;;;;-0.20;91.00;;;;;;5097362;27;19930;-83
2021/12/07 02:06:40;;;;;;;;;;;-0.20;91.40;;;;;;5116086;27;19923;-84
2021/12/07 02:09:11;;;;;;;;;;;-0.10;91.30;;;;;;5099068;27;20231;-83
2021/12/07 02:11:46;;;;;;;;;;;-0.10;91.30;;;;;;5115907;27;20372;-83
2021/12/07 02:14:16;;;;;;;;;;;-0.10;91.30;;;;;;5116384;27;19927;-83
2021/12/07 02:17:00;;;;;;;;;;;-0.10;91.30;;;;;;5127678;27;20311;-83
2021/12/07 02:19:28;;;;;;;;;;;-0.10;91.40;;;;;;5116025;27;19924;-83
2021/12/07 02:21:57;;;;;;;;;;;0.00;91.50;;;;;;5134298;27;19935;-83
2021/12/07 02:24:31;;;;;;;;;;;0.00;91.40;;;;;;5115639;27;19924;-83
2021/12/07 02:26:58;;;;;;;;;;;0.00;91.30;;;;;;5134202;27;19924;-83
2021/12/07 02:29:26;;;;;;;;;;;0.00;91.30;;;;;;5115832;27;20281;-84
2021/12/07 02:31:54;;;;;;;;;;;0.00;91.30;;;;;;5115534;27;19923;-84
2021/12/07 02:34:24;;;;;;;;;;;0.00;91.40;;;;;;5133826;27;19980;-83
2021/12/07 02:36:55;;;;;;;;;;;-0.10;91.40;;;;;;5114825;27;19927;-83
2021/12/07 02:39:31;;;;;;;;;;;-0.10;91.50;;;;;;5114774;27;20293;-83
2021/12/07 02:42:00;;;;;;;;;;;-0.10;91.50;;;;;;5115355;27;19923;-83
2021/12/07 02:44:28;;;;;;;;;;;-0.10;91.70;;;;;;5114919;27;19924;-83
2021/12/07 02:46:56;;;;;;;;;;;-0.10;91.60;;;;;;5114335;27;20376;-83
2021/12/07 02:49:24;;;;;;;;;;;-0.10;91.50;;;;;;5115665;27;19930;-83
2021/12/07 02:51:51;;;;;;;;;;;-0.10;91.60;;;;;;5133838;27;19923;-84
2021/12/07 02:54:21;;;;;;;;;;;-0.20;91.50;;;;;;5133982;27;19924;-84
2021/12/07 02:56:51;;;;;;;;;;;-0.30;91.50;;;;;;5132626;27;19930;-83
2021/12/07 02:59:21;;;;;;;;;;;-0.40;91.50;;;;;;5115012;28;19924;-83
2021/12/07 03:01:58;;;;;;;;;;;-0.50;91.60;;;;;;5115054;28;19930;-83
2021/12/07 03:04:34;;;;;;;;;;;-0.60;91.80;;;;;;5132468;28;19927;-83
2021/12/07 03:07:40;;;;;;;;;;;-0.60;91.80;;;;;;5131886;28;19928;-83
2021/12/07 03:26:24;;;;;;;;;;;-0.90;92.40;;;;;;5090325;28;19931;-83
2021/12/07 03:28:55;;;;;;;;;;;-0.90;92.60;;;;;;5069111;28;19924;-83
2021/12/07 03:31:26;;;;;;;;;;;-0.90;92.70;;;;;;5097985;28;19924;-82
2021/12/07 03:33:55;;;;;;;;;;;-0.80;92.70;;;;;;5087671;28;19931;-83
2021/12/07 03:36:25;;;;;;;;;;;-0.80;92.70;;;;;;5057075;28;19924;-83
2021/12/07 03:38:55;;;;;;;;;;;-0.70;92.80;;;;;;5072695;28;19924;-83
2021/12/07 03:41:23;;;;;;;;;;;-0.70;92.70;;;;;;5073672;28;20352;-83
2021/12/07 03:43:51;;;;;;;;;;;-0.60;92.60;;;;;;5088834;28;19931;-83
2021/12/07 03:46:19;;;;;;;;;;;-0.60;92.60;;;;;;5062183;28;20410;-83
2021/12/07 03:48:47;;;;;;;;;;;-0.60;92.50;;;;;;5069467;28;19925;-83
2021/12/07 03:51:15;;;;;;;;;;;-0.60;92.50;;;;;;5068041;28;19923;-82
2021/12/07 03:53:42;;;;;;;;;;;-0.60;92.40;;;;;;5140981;27;19923;-82
2021/12/07 03:56:10;;;;;;;;;;;-0.50;92.50;;;;;;5124191;27;19923;-81
2021/12/07 03:58:41;;;;;;;;;;;-0.50;92.50;;;;;;5126227;27;19946;-83
2021/12/07 04:01:11;;;;;;;;;;;-0.50;92.50;;;;;;5127472;27;19927;-83
2021/12/07 04:03:41;;;;;;;;;;;-0.50;92.50;;;;;;5129092;27;20319;-83
2021/12/07 04:06:09;;;;;;;;;;;-0.50;92.50;;;;;;5127766;27;19947;-83
2021/12/07 04:08:42;;;;;;;;;;;-0.50;92.60;;;;;;5109174;27;19923;-82
2021/12/07 04:11:14;;;;;;;;;;;-0.40;92.50;;;;;;5126607;27;19923;-82
2021/12/07 04:13:44;;;;;;;;;;;-0.40;92.70;;;;;;5108584;27;19927;-83
2021/12/07 04:16:13;;;;;;;;;;;-0.30;92.70;;;;;;5127688;27;19923;-82
2021/12/07 04:18:44;;;;;;;;;;;-0.30;92.80;;;;;;5112519;27;19934;-82
2021/12/07 04:21:13;;;;;;;;;;;-0.20;92.70;;;;;;5127014;27;19923;-82
2021/12/07 04:23:40;;;;;;;;;;;-0.10;92.70;;;;;;5128488;27;19923;-83
2021/12/07 04:26:08;;;;;;;;;;;0.00;92.70;;;;;;5145272;27;19935;-83
2021/12/07 04:28:36;;;;;;;;;;;0.00;92.70;;;;;;5127228;27;19924;-82
2021/12/07 04:31:04;;;;;;;;;;;0.00;92.70;;;;;;5142441;27;19930;-83
2021/12/07 04:33:31;;;;;;;;;;;0.10;92.60;;;;;;5144271;27;19923;-82
2021/12/07 04:36:00;;;;;;;;;;;0.20;92.60;;;;;;5144187;27;20384;-83
2021/12/07 04:38:27;;;;;;;;;;;0.20;92.60;;;;;;5147085;27;19923;-81
2021/12/07 04:40:55;;;;;;;;;;;0.20;92.60;;;;;;5140626;27;19928;-82
2021/12/07 04:43:23;;;;;;;;;;;0.20;92.60;;;;;;5125935;27;19941;-82
2021/12/07 04:59:02;;;;;;;;;;;0.40;92.60;;;;;;5145623;27;19923;-82
2021/12/07 05:01:31;;;;;;;;;;;0.40;92.60;;;;;;5143871;27;19931;-83
2021/12/07 05:04:05;;;;;;;;;;;0.40;92.60;;;;;;5144666;27;19924;-83
2021/12/07 05:06:34;;;;;;;;;;;0.40;92.60;;;;;;5145580;27;19923;-82
2021/12/07 05:09:22;;;;;;;;;;;0.50;92.60;;;;;;5133637;27;19930;-82
2021/12/07 05:12:05;;;;;;;;;;;0.50;92.60;;;;;;5153318;27;19931;-83
2021/12/07 05:14:36;;;;;;;;;;;0.50;92.60;;;;;;5112246;27;20018;-82
2021/12/07 05:39:02;;;;;;;;;;;0.70;92.60;;;;;;5134173;27;19928;-82
2021/12/07 05:41:29;;;;;;;;;;;0.70;92.60;;;;;;5150823;27;19923;-82
2021/12/07 05:43:57;;;;;;;;;;;0.80;92.60;;;;;;5152670;27;20264;-82
2021/12/07 05:46:24;;;;;;;;;;;0.80;92.60;;;;;;5135714;27;19946;-82
2021/12/07 05:48:52;;;;;;;;;;;0.80;92.60;;;;;;5134033;27;19928;-82
2021/12/07 05:51:19;;;;;;;;;;;0.80;92.70;;;;;;5116089;27;20024;-82
2021/12/07 05:53:47;;;;;;;;;;;0.80;92.70;;;;;;5137198;27;19923;-83
2021/12/07 05:56:14;;;;;;;;;;;0.80;92.70;;;;;;5133486;27;20370;-81
2021/12/07 05:58:42;;;;;;;;;;;0.90;92.70;;;;;;5154321;27;19923;-82
2021/12/07 06:01:09;;;;;;;;;;;0.90;92.70;;;;;;5148734;27;19930;-83
2021/12/07 06:03:37;;;;;;;;;;;1.00;92.70;;;;;;5153446;27;19930;-82
2021/12/07 06:06:06;;;;;;;;;;;1.00;92.60;;;;;;5133747;27;19931;-83
2021/12/07 06:08:33;;;;;;;;;;;1.00;92.70;;;;;;5103272;27;20379;-83
2021/12/07 06:11:01;;;;;;;;;;;1.00;92.70;;;;;;5134262;27;19923;-83
2021/12/07 06:13:28;;;;;;;;;;;1.00;92.70;;;;;;5135908;27;19923;-83
2021/12/07 06:16:03;;;;;;;;;;;1.10;92.70;;;;;;5135844;27;19927;-83
2021/12/07 06:18:30;;;;;;;;;;;1.20;92.70;;;;;;5115840;27;19924;-83
2021/12/07 06:20:58;;;;;;;;;;;1.20;92.60;;;;;;5122288;27;19930;-82
2021/12/07 06:23:25;;;;;;;;;;;1.20;92.60;;;;;;5134195;27;19923;-82
2021/12/07 06:25:54;;;;;;;;;;;1.30;92.60;;;;;;5153976;27;19930;-82
2021/12/07 06:28:21;;;;;;;;;;;1.30;92.50;;;;;;5138572;27;19930;-82
2021/12/07 06:30:49;;;;;;;;;;;1.30;92.50;;;;;;5135056;27;19928;-81
2021/12/07 06:33:18;;;;;;;;;;;1.30;92.50;;;;;;5148275;27;19930;-81
2021/12/07 06:35:47;;;;;;;;;;;1.30;92.50;;;;;;5137237;27;20364;-81
2021/12/07 06:38:18;;;;;;;;;;;1.30;92.50;;;;;;5152501;27;20029;-81
2021/12/07 06:40:45;;;;;;;;;;;1.40;92.50;;;;;;5151615;27;19923;-81
2021/12/07 06:43:13;;;;;;;;;;;1.40;92.50;;;;;;5139142;27;20356;-81
2021/12/07 06:45:40;;;;;;;;;;;1.40;92.50;;;;;;5138729;27;19927;-81
2021/12/07 06:48:08;;;;;;;;;;;1.50;92.50;;;;;;5135613;27;19923;-81
2021/12/07 06:50:36;;;;;;;;;;;1.50;92.50;;;;;;5153386;27;19923;-81
2021/12/07 06:53:03;;;;;;;;;;;1.60;92.50;;;;;;5157222;27;19938;-80
2021/12/07 06:55:31;;;;;;;;;;;1.60;92.50;;;;;;5145824;27;19930;-81
2021/12/07 06:57:59;;;;;;;;;;;1.70;92.50;;;;;;5146398;27;19923;-81
2021/12/07 07:00:26;;;;;;;;;;;1.80;92.40;;;;;;5135419;27;20279;-81
2021/12/07 07:02:53;;;;;;;;;;;1.80;92.30;;;;;;5140345;27;19942;-81
2021/12/07 07:05:22;;;;;;;;;;;1.90;92.20;;;;;;5120635;27;19945;-81
2021/12/07 07:07:49;;;;;;;;;;;1.90;92.10;;;;;;5135185;27;19929;-81
2021/12/07 07:10:18;;;;;;;;;;;1.90;92.10;;;;;;5111438;28;19930;-81
2021/12/07 07:12:46;;;;;;;;;;;2.00;92.00;;;;;;5133168;27;19927;-82
2021/12/07 07:15:14;;;;;;;;;;;2.10;91.80;;;;;;5145414;27;19930;-82
2021/12/07 07:17:41;;;;;;;;;;;2.10;91.80;;;;;;5150961;27;19927;-82
2021/12/07 07:20:12;;;;;;;;;;;2.10;91.70;;;;;;5148241;27;20287;-83
2021/12/07 07:22:40;;;;;;;;;;;2.30;91.60;;;;;;5134025;27;20373;-83
2021/12/07 07:25:08;;;;;;;;;;;2.20;91.50;;;;;;5149355;27;20396;-83
2021/12/07 07:27:36;;;;;;;;;;;2.20;91.30;;;;;;5153286;27;19934;-83
2021/12/07 07:30:04;;;;;;;;;;;2.30;91.20;;;;;;5126580;27;19930;-83
2021/12/07 07:32:32;;;;;;;;;;;2.30;91.20;;;;;;5137275;27;20016;-82
2021/12/07 07:34:59;;;;;;;;;;;2.30;91.00;;;;;;5124087;27;19923;-83
2021/12/07 07:37:26;;;;;;;;;;;2.30;90.90;;;;;;5151954;27;19923;-83
2021/12/07 07:39:54;;;;;;;;;;;2.30;90.80;;;;;;5139347;27;19923;-82
2021/12/07 07:42:21;;;;;;;;;;;2.40;90.80;;;;;;5147260;27;19923;-83
2021/12/07 07:45:01;;;;;;;;;;;2.40;90.70;;;;;;5138151;27;19927;-83
2021/12/07 07:47:28;;;;;;;;;;;2.40;90.60;;;;;;5149706;27;19923;-83
2021/12/07 07:49:56;;;;;;;;;;;2.40;90.50;;;;;;5127720;27;19924;-83
2021/12/07 07:52:23;;;;;;;;;;;2.40;90.40;;;;;;5101122;27;19934;-83
2021/12/07 07:54:52;;;;;;;;;;;2.50;90.30;;;;;;5118400;27;19924;-83
2021/12/07 07:57:20;;;;;;;;;;;2.50;90.20;;;;;;5101603;27;19938;-83
2021/12/07 07:59:48;;;;;;;;;;;2.50;90.00;;;;;;5135773;27;19938;-83
2021/12/07 08:02:16;;;;;;;;;;;2.50;89.80;;;;;;5139638;27;19997;-83
2021/12/07 08:04:43;;;;;;;;;;;2.60;89.70;;;;;;5122220;27;20284;-83
2021/12/07 08:07:11;;;;;;;;;;;2.60;89.40;;;;;;5127279;27;20261;-83
2021/12/07 08:09:39;;;;;;;;;;;2.60;89.40;;;;;;5158684;27;20381;-83
2021/12/07 08:12:06;;;;;;;;;;;2.60;89.20;;;;;;5123579;27;20372;-83
2021/12/07 08:14:37;;;;;;;;;;;2.70;89.10;;;;;;5127069;27;20403;-82
2021/12/07 08:17:05;;;;;;;;;;;2.70;88.90;;;;;;5144628;27;19923;-80
2021/12/07 08:19:33;;;;;;;;;;;2.70;88.80;;;;;;5138823;27;19927;-84
2021/12/07 08:22:00;;;;;;;;;;;2.70;88.60;;;;;;5151672;27;19930;-83
2021/12/07 08:24:29;;;;;;;;;;;2.70;88.60;;;;;;5121819;27;19930;-84
2021/12/07 08:26:56;;;;;;;;;;;2.70;88.60;;;;;;5140515;27;19923;-82
2021/12/07 08:29:43;;;;;;;;;;;2.70;88.50;;;;;;5158390;27;19927;-83
2021/12/07 08:32:10;;;;;;;;;;;2.70;88.50;;;;;;5159969;27;19923;-83
2021/12/07 08:34:38;;;;;;;;;;;2.70;88.50;;;;;;5171000;27;19918;-82
2021/12/07 08:37:05;;;;;;;;;;;2.70;88.40;;;;;;5167624;27;19927;-83
2021/12/07 08:39:34;;;;;;;;;;;2.80;88.20;;;;;;5159696;27;19923;-84
2021/12/07 08:42:03;;;;;;;;;;;2.80;88.10;;;;;;5139728;27;19930;-84
2021/12/07 08:44:30;;;;;;;;;;;2.80;88.10;;;;;;5138888;27;19927;-82
2021/12/07 08:46:58;;;;;;;;;;;2.90;88.00;;;;;;5157258;27;19986;-83
2021/12/07 08:49:25;;;;;;;;;;;2.90;87.70;;;;;;5157915;27;19923;-83
2021/12/07 08:51:54;;;;;;;;;;;3.00;87.60;;;;;;5157477;27;19923;-83
2021/12/07 08:59:45;;;;;;;;;;;3.20;87.20;;;;;;5158764;27;19923;-82
2021/12/07 09:02:17;;;;;;;;;;;3.10;87.00;;;;;;5157668;27;19923;-84
2021/12/07 09:04:45;;;;;;;;;;;3.10;86.90;;;;;;5138885;27;19927;-83
2021/12/07 09:07:13;;;;;;;;;;;3.10;87.10;;;;;;5157003;27;19923;-81
2021/12/07 09:09:43;;;;;;;;;;;3.00;87.20;;;;;;5157551;27;19927;-82
2021/12/07 09:12:12;;;;;;;;;;;3.00;87.30;;;;;;5157766;27;19942;-82
2021/12/07 09:14:42;;;;;;;;;;;3.00;87.40;;;;;;5158110;27;19930;-82
2021/12/07 09:17:10;;;;;;;;;;;3.00;87.50;;;;;;5121580;27;19923;-82
2021/12/07 09:19:38;;;;;;;;;;;2.90;87.40;;;;;;5156759;27;19923;-83
2021/12/07 09:22:06;;;;;;;;;;;3.00;87.50;;;;;;5156307;27;19923;-83
2021/12/07 09:24:53;;;;;;;;;;;3.00;87.50;;;;;;5156948;27;19923;-83
2021/12/07 09:27:21;;;;;;;;;;;3.00;87.60;;;;;;5157715;27;19931;-82
2021/12/07 09:29:48;;;;;;;;;;;3.00;87.60;;;;;;5157395;27;19924;-83
2021/12/07 09:32:16;;;;;;;;;;;3.00;87.70;;;;;;5138630;27;19923;-83
2021/12/07 09:34:43;;;;;;;;;;;3.10;87.80;;;;;;5156862;27;20359;-83
2021/12/07 09:37:11;;;;;;;;;;;3.10;87.70;;;;;;5156917;27;20291;-82
2021/12/07 09:39:38;;;;;;;;;;;3.20;87.70;;;;;;5138951;27;19931;-82
2021/12/07 09:42:05;;;;;;;;;;;3.30;87.70;;;;;;5156306;27;19927;-82
2021/12/07 09:44:33;;;;;;;;;;;3.30;87.60;;;;;;5156695;27;19923;-82
2021/12/07 09:47:01;;;;;;;;;;;3.40;87.60;;;;;;5156330;27;19927;-82
2021/12/07 09:49:29;;;;;;;;;;;3.50;87.60;;;;;;5156734;27;19930;-83
2021/12/07 09:51:57;;;;;;;;;;;3.60;87.50;;;;;;5159286;27;20280;-84
2021/12/07 09:54:24;;;;;;;;;;;3.70;87.30;;;;;;5160265;27;19923;-82
2021/12/07 09:56:52;;;;;;;;;;;3.80;87.10;;;;;;5157012;27;19958;-82
2021/12/07 09:59:20;;;;;;;;;;;3.80;86.80;;;;;;5122621;27;19923;-82
2021/12/07 10:01:47;;;;;;;;;;;3.80;86.80;;;;;;5116971;27;19930;-82
2021/12/07 10:04:15;;;;;;;;;;;3.90;86.80;;;;;;5135865;27;19923;-83
2021/12/07 10:06:47;;;;;;;;;;;3.90;86.90;;;;;;5135965;27;19923;-83
2021/12/07 10:09:15;;;;;;;;;;;3.90;87.00;;;;;;5119991;27;20376;-82
2021/12/07 10:11:42;;;;;;;;;;;3.90;87.10;;;;;;5141119;27;20276;-83
2021/12/07 10:14:10;;;;;;;;;;;3.90;87.20;;;;;;5148075;27;19928;-82
2021/12/07 10:16:43;;;;;;;;;;;3.90;87.30;;;;;;5147553;27;19923;-82
2021/12/07 10:19:15;;;;;;;;;;;3.90;87.50;;;;;;5120540;27;19957;-82
2021/12/07 10:21:43;;;;;;;;;;;4.00;87.60;;;;;;5118667;27;19939;-82
2021/12/07 10:24:21;;;;;;;;;;;4.00;87.60;;;;;;5118397;27;19923;-82
2021/12/07 10:26:49;;;;;;;;;;;4.10;87.60;;;;;;5136146;27;19931;-82
2021/12/07 10:29:20;;;;;;;;;;;4.10;87.40;;;;;;5117023;27;19923;-82
2021/12/07 10:31:53;;;;;;;;;;;4.20;87.40;;;;;;5134758;27;19931;-82
2021/12/07 10:34:22;;;;;;;;;;;4.30;87.30;;;;;;5099384;27;19923;-82
2021/12/07 10:36:52;;;;;;;;;;;4.30;87.40;;;;;;5116683;27;19923;-82
2021/12/07 10:39:21;;;;;;;;;;;4.30;87.40;;;;;;5133893;27;19930;-82
2021/12/07 10:41:50;;;;;;;;;;;4.50;87.50;;;;;;5134774;27;19923;-81
2021/12/07 10:44:19;;;;;;;;;;;4.50;87.50;;;;;;5115782;27;19923;-81
2021/12/07 10:46:52;;;;;;;;;;;4.60;87.50;;;;;;5133399;27;20380;-81
2021/12/07 10:49:22;;;;;;;;;;;4.60;87.60;;;;;;5116247;27;19924;-81
2021/12/07 10:52:08;;;;;;;;;;;4.70;87.70;;;;;;5133738;27;19924;-80
2021/12/07 10:54:55;;;;;;;;;;;4.80;87.80;;;;;;5134061;27;19931;-81
2021/12/07 10:57:25;;;;;;;;;;;4.80;87.90;;;;;;5099418;28;19928;-81
2021/12/07 11:00:02;;;;;;;;;;;4.90;87.90;;;;;;5115219;28;19927;-80
2021/12/07 11:02:33;;;;;;;;;;;5.00;87.90;;;;;;5133662;27;19931;-81
2021/12/07 11:05:03;;;;;;;;;;;5.00;87.80;;;;;;5134234;28;19923;-81
2021/12/07 11:07:34;;;;;;;;;;;5.10;87.90;;;;;;5115545;28;20296;-80
2021/12/07 11:10:13;;;;;;;;;;;5.10;87.90;;;;;;5134121;28;19923;-81
2021/12/07 11:13:00;;;;;;;;;;;5.10;87.80;;;;;;5133849;28;19935;-81
2021/12/07 11:15:29;;;;;;;;;;;5.20;87.90;;;;;;5116786;28;20292;-80
2021/12/07 11:17:59;;;;;;;;;;;5.30;87.80;;;;;;5115874;28;19927;-81
2021/12/07 11:20:28;;;;;;;;;;;5.30;87.80;;;;;;5134490;28;20097;-81
2021/12/07 11:22:57;;;;;;;;;;;5.30;87.70;;;;;;5134372;28;20453;-81
2021/12/07 11:31:15;;;;;;;;;;;5.40;87.70;;;;;;5140978;28;19923;-79
2021/12/07 11:33:44;;;;;;;;;;;5.50;87.60;;;;;;5099587;28;19923;-81
2021/12/07 11:36:30;;;;;;;;;;;5.50;87.60;;;;;;5133715;28;20177;-82
2021/12/07 11:38:59;;;;;;;;;;;5.50;87.70;;;;;;5133529;28;19923;-81
2021/12/07 11:41:31;;;;;;;;;;;5.40;87.70;;;;;;5132984;28;19924;-82
2021/12/07 11:44:04;;;;;;;;;;;5.50;87.80;;;;;;5133486;28;20403;-81
2021/12/07 11:46:34;;;;;;;;;;;5.40;88.00;;;;;;5116199;27;20273;-81
2021/12/07 11:49:09;;;;;;;;;;;5.40;88.10;;;;;;5143654;27;19930;-81
2021/12/07 11:51:38;;;;;;;;;;;5.50;88.10;;;;;;5142358;27;19923;-81
2021/12/07 11:54:05;;;;;;;;;;;5.50;88.30;;;;;;5142599;27;20404;-82
2021/12/07 11:56:33;;;;;;;;;;;5.50;88.40;;;;;;5128127;27;19942;-81
2021/12/07 11:59:00;;;;;;;;;;;5.50;88.40;;;;;;5110449;27;19923;-82
2021/12/07 12:01:43;;;;;;;;;;;5.50;88.60;;;;;;5125361;27;19924;-81
2021/12/07 12:04:11;;;;;;;;;;;5.50;88.70;;;;;;5141733;27;19923;-81
2021/12/07 12:06:42;;;;;;;;;;;5.50;88.80;;;;;;5124520;27;19930;-83
2021/12/07 12:09:10;;;;;;;;;;;5.50;88.90;;;;;;5124797;27;19930;-82
2021/12/07 12:11:53;;;;;;;;;;;5.50;89.00;;;;;;5141761;27;19927;-82
2021/12/07 12:14:20;;;;;;;;;;;5.50;89.00;;;;;;5140517;27;19934;-81
2021/12/07 12:17:07;;;;;;;;;;;5.60;89.20;;;;;;5144267;27;19923;-82
2021/12/07 12:19:58;;;;;;;;;;;5.50;89.30;;;;;;5143628;27;19946;-81
2021/12/07 12:22:34;;;;;;;;;;;5.60;89.40;;;;;;5147246;27;19930;-81
2021/12/07 12:25:07;;;;;;;;;;;5.60;89.50;;;;;;5128779;27;19923;-82
2021/12/07 12:27:39;;;;;;;;;;;5.70;89.60;;;;;;5129308;27;19923;-82
2021/12/07 12:30:22;;;;;;;;;;;5.70;89.60;;;;;;5127018;27;19923;-82
2021/12/07 12:32:56;;;;;;;;;;;5.70;89.60;;;;;;5146851;27;19927;-81
2021/12/07 12:35:38;;;;;;;;;;;5.80;89.60;;;;;;5130366;27;19931;-81
2021/12/07 12:38:18;;;;;;;;;;;5.80;89.60;;;;;;5137033;27;19927;-82
2021/12/07 12:40:57;;;;;;;;;;;5.80;89.80;;;;;;5135439;27;19934;-82
2021/12/07 12:43:37;;;;;;;;;;;5.80;90.00;;;;;;5145928;27;19938;-82
2021/12/07 12:46:05;;;;;;;;;;;5.80;90.10;;;;;;5142510;27;19935;-82
2021/12/07 12:48:33;;;;;;;;;;;5.80;90.20;;;;;;5143833;27;20384;-80
2021/12/07 12:51:01;;;;;;;;;;;5.80;90.30;;;;;;5144374;27;19923;-79
2021/12/07 12:53:31;;;;;;;;;;;5.80;90.40;;;;;;5144471;27;19931;-80
2021/12/07 12:56:00;;;;;;;;;;;5.80;90.60;;;;;;5142883;27;19923;-80
2021/12/07 12:58:28;;;;;;;;;;;5.80;90.70;;;;;;5122198;27;19930;-80
2021/12/07 13:01:14;;;;;;;;;;;5.80;90.70;;;;;;5099792;27;19923;-80
2021/12/07 13:03:57;;;;;;;;;;;5.80;90.80;;;;;;5113693;27;19923;-81
2021/12/07 13:06:24;;;;;;;;;;;5.90;90.90;;;;;;5155267;27;19923;-80
2021/12/07 13:09:18;;;;;;;;;;;5.90;91.10;;;;;;5135138;27;19923;-81
2021/12/07 13:11:52;;;;;;;;;;;5.90;91.10;;;;;;5135344;27;19934;-81
2021/12/07 13:14:19;;;;;;;;;;;6.00;91.10;;;;;;5136367;27;19931;-80
2021/12/07 13:17:00;;;;;;;;;;;6.00;91.10;;;;;;5136979;27;19938;-80
2021/12/07 13:19:28;;;;;;;;;;;6.00;91.20;;;;;;5117830;27;20388;-82
2021/12/07 13:22:01;;;;;;;;;;;6.00;91.10;;;;;;5144083;27;19939;-80
2021/12/07 13:24:36;;;;;;;;;;;6.10;91.10;;;;;;5153796;27;19930;-79
2021/12/07 13:27:11;;;;;;;;;;;6.10;91.20;;;;;;5134652;27;19934;-79
2021/12/07 13:29:46;;;;;;;;;;;6.10;91.30;;;;;;5148760;27;19926;-79
2021/12/07 13:32:15;;;;;;;;;;;6.10;91.30;;;;;;5152522;27;19927;-79
2021/12/07 13:34:44;;;;;;;;;;;6.10;91.40;;;;;;5150482;27;19927;-79
2021/12/07 13:37:13;;;;;;;;;;;6.20;91.50;;;;;;5147138;27;19924;-80
2021/12/07 13:39:40;;;;;;;;;;;6.20;91.50;;;;;;5151607;27;19927;-80
2021/12/07 13:42:11;;;;;;;;;;;6.20;91.60;;;;;;5138449;27;19923;-80
2021/12/07 13:44:42;;;;;;;;;;;6.20;91.60;;;;;;5148741;27;19923;-80
2021/12/07 13:47:15;;;;;;;;;;;6.20;91.80;;;;;;5129940;27;19946;-80
2021/12/07 13:49:48;;;;;;;;;;;6.20;91.80;;;;;;5143203;27;19923;-79
2021/12/07 13:52:19;;;;;;;;;;;6.20;91.90;;;;;;5134239;27;20295;-77
2021/12/07 13:54:48;;;;;;;;;;;6.20;92.10;;;;;;5161339;27;20256;-80
2021/12/07 13:57:23;;;;;;;;;;;6.30;92.30;;;;;;5160326;27;19923;-80
2021/12/07 14:00:02;;;;;;;;;;;6.20;92.20;;;;;;5162679;27;20292;-79
2021/12/07 14:02:40;;;;;;;;;;;6.10;91.80;;;;;;5162926;27;19923;-79
2021/12/07 14:05:13;;;;;;;;;;;5.80;91.10;;;;;;5160170;27;19930;-80
2021/12/07 14:07:42;;;;;;;;;;;5.70;90.10;;;;;;5162044;27;19926;-79
2021/12/07 14:10:13;;;;;;;;;;;5.50;90.40;;;;;;5161921;27;19934;-79
2021/12/07 14:12:42;;;;;;;;;;;5.30;90.40;;;;;;5160043;27;19954;-79
2021/12/07 14:15:19;;;;;;;;;;;5.30;90.60;;;;;;5148779;27;20475;-78
2021/12/07 14:17:50;;;;;;;;;;;5.20;90.80;;;;;;5146663;27;19924;-77
2021/12/07 14:20:30;;;;;;;;;;;5.20;91.00;;;;;;5144350;27;20304;-78
2021/12/07 14:22:59;;;;;;;;;;;5.20;91.20;;;;;;5138033;27;19927;-77
2021/12/07 14:25:26;;;;;;;;;;;5.20;91.20;;;;;;5155337;27;19930;-77
2021/12/07 14:27:56;;;;;;;;;;;5.20;91.40;;;;;;5155208;27;19923;-78
2021/12/07 14:30:23;;;;;;;;;;;5.20;91.40;;;;;;5157571;27;19926;-77
2021/12/07 14:32:51;;;;;;;;;;;5.20;91.50;;;;;;5156485;27;19923;-78
2021/12/07 14:35:19;;;;;;;;;;;5.20;91.60;;;;;;5144942;27;19935;-77
2021/12/07 14:37:46;;;;;;;;;;;5.10;91.60;;;;;;5127132;27;20372;-77
2021/12/07 14:40:14;;;;;;;;;;;5.10;91.80;;;;;;5144894;27;20300;-79
2021/12/07 14:43:02;;;;;;;;;;;5.20;91.90;;;;;;5118887;27;19923;-78
2021/12/07 14:45:29;;;;;;;;;;;5.30;91.90;;;;;;5146708;27;19950;-77
2021/12/07 14:48:00;;;;;;;;;;;5.40;91.80;;;;;;5151128;27;19930;-77
2021/12/07 14:50:42;;;;;;;;;;;5.40;91.50;;;;;;5139144;27;20384;-85
2021/12/07 14:53:10;;;;;;;;;;;5.40;91.10;;;;;;5157017;27;19923;-79
2021/12/07 14:55:38;;;;;;;;;;;5.30;91.00;;;;;;5159885;27;20276;-78
2021/12/07 14:58:06;;;;;;;;;;;5.30;91.00;;;;;;5157503;27;19927;-84
2021/12/07 15:00:33;;;;;;;;;;;5.30;91.10;;;;;;5158127;27;19931;-78
2021/12/07 15:03:01;;;;;;;;;;;5.20;91.00;;;;;;5156980;27;19923;-78
2021/12/07 15:05:33;;;;;;;;;;;5.10;91.00;;;;;;5138029;27;19927;-80
2021/12/07 15:08:03;;;;;;;;;;;5.00;91.10;;;;;;5157034;27;20394;-77
2021/12/07 15:10:30;;;;;;;;;;;4.90;91.30;;;;;;5138162;27;20291;-77
2021/12/07 15:12:59;;;;;;;;;;;4.90;91.40;;;;;;5137676;27;19930;-77
2021/12/07 15:15:27;;;;;;;;;;;4.80;91.50;;;;;;5148668;27;20005;-78
2021/12/07 15:17:54;;;;;;;;;;;4.80;91.50;;;;;;5128299;27;19923;-78
2021/12/07 15:20:21;;;;;;;;;;;4.80;91.50;;;;;;5146461;27;19924;-79
2021/12/07 15:22:49;;;;;;;;;;;4.80;91.50;;;;;;5126094;27;19923;-77
2021/12/07 15:25:17;;;;;;;;;;;4.80;91.50;;;;;;5125473;27;19977;-77
2021/12/07 15:27:49;;;;;;;;;;;4.60;91.70;;;;;;5127536;27;19930;-78
2021/12/07 15:30:17;;;;;;;;;;;4.60;91.80;;;;;;5141717;27;19934;-79
2021/12/07 15:32:45;;;;;;;;;;;4.60;92.00;;;;;;5121036;27;19996;-77
2021/12/07 15:35:23;;;;;;;;;;;4.60;92.10;;;;;;5124780;27;20304;-76
2021/12/07 15:37:51;;;;;;;;;;;4.60;92.10;;;;;;5143170;27;19923;-79
2021/12/07 15:40:20;;;;;;;;;;;4.50;92.00;;;;;;5143701;27;19923;-77
2021/12/07 15:42:48;;;;;;;;;;;4.40;92.00;;;;;;5124026;27;19958;-76
2021/12/07 15:45:16;;;;;;;;;;;4.40;92.20;;;;;;5144966;27;19924;-76
2021/12/07 15:47:46;;;;;;;;;;;4.40;92.20;;;;;;5148399;27;19934;-77
2021/12/07 15:50:15;;;;;;;;;;;4.30;92.30;;;;;;5125639;27;19924;-78
2021/12/07 15:52:47;;;;;;;;;;;4.30;92.40;;;;;;5142935;27;19934;-77
2021/12/07 15:55:18;;;;;;;;;;;4.30;92.60;;;;;;5149146;27;20288;-77
2021/12/07 15:57:46;;;;;;;;;;;4.30;92.60;;;;;;5149546;27;19927;-77
2021/12/07 16:00:24;;;;;;;;;;;4.30;92.60;;;;;;5147733;27;19946;-77
2021/12/07 16:02:53;;;;;;;;;;;4.30;92.60;;;;;;5129663;27;20081;-78
2021/12/07 16:05:41;;;;;;;;;;;4.20;92.70;;;;;;5132554;27;19924;-76
2021/12/07 16:08:09;;;;;;;;;;;4.20;92.90;;;;;;5146928;27;19946;-77
2021/12/07 16:10:38;;;;;;;;;;;4.20;92.90;;;;;;5147229;27;20378;-76
2021/12/07 16:13:12;;;;;;;;;;;4.20;93.10;;;;;;5130146;27;19941;-77
2021/12/07 16:15:45;;;;;;;;;;;4.20;93.00;;;;;;5149165;27;19924;-78
2021/12/07 16:18:12;;;;;;;;;;;4.20;93.20;;;;;;5145629;27;19923;-78
2021/12/07 16:20:41;;;;;;;;;;;4.30;93.30;;;;;;5144726;27;19923;-78
2021/12/07 16:23:09;;;;;;;;;;;4.30;93.10;;;;;;5146099;27;19930;-76
2021/12/07 16:25:38;;;;;;;;;;;4.30;93.10;;;;;;5148990;27;19932;-78
2021/12/07 16:28:26;;;;;;;;;;;4.40;93.00;;;;;;5148805;27;20291;-78
2021/12/07 16:30:54;;;;;;;;;;;4.30;92.80;;;;;;5140835;27;19923;-78
2021/12/07 16:33:21;;;;;;;;;;;4.40;92.60;;;;;;5120882;27;19927;-83
2021/12/07 16:35:49;;;;;;;;;;;4.30;92.40;;;;;;5144296;27;19923;-77
2021/12/07 16:38:17;;;;;;;;;;;4.30;92.20;;;;;;5147202;27;19927;-77
2021/12/07 16:40:44;;;;;;;;;;;4.30;91.60;;;;;;5144387;27;20292;-77